sensor_id;sensor_type;location;lat;lon;timestamp;temperature;humidity
67870;DHT22;54673;52.262;6.830;2023-12-28T00:01:16;7.00;99.90
67870;DHT22;54673;52.262;6.830;2023-12-28T00:03:42;7.00;99.90
67870;DHT22;54673;52.262;6.830;2023-12-28T00:06:07;7.30;99.90
67870;DHT22;54673;52.262;6.830;2023-12-28T00:08:33;6.90;99.90
67870;DHT22;54673;52.262;6.830;2023-12-28T00:10:59;7.00;99.90
67870;DHT22;54673;52.262;6.830;2023-12-28T00:13:24;7.00;99.90
67870;DHT22;54673;52.262;6.830;2023-12-28T00:15:50;8.30;99.90
67870;DHT22;54673;52.262;6.830;2023-12-28T00:18:15;8.20;99.90
67870;DHT22;54673;52.262;6.830;2023-12-28T00:20:41;7.10;99.90
67870;DHT22;54673;52.262;6.830;2023-12-28T00:23:07;7.10;99.90
67870;DHT22;54673;52.262;6.830;2023-12-28T00:25:32;7.00;99.90
67870;DHT22;54673;52.262;6.830;2023-12-28T00:27:58;7.00;99.90
67870;DHT22;54673;52.262;6.830;2023-12-28T00:30:23;7.10;99.90
67870;DHT22;54673;52.262;6.830;2023-12-28T00:32:49;7.00;99.90
67870;DHT22;54673;52.262;6.830;2023-12-28T00:35:15;7.00;99.90
67870;DHT22;54673;52.262;6.830;2023-12-28T00:37:40;7.10;99.90
67870;DHT22;54673;52.262;6.830;2023-12-28T00:40:06;7.00;99.90
67870;DHT22;54673;52.262;6.830;2023-12-28T00:42:32;7.10;99.90
67870;DHT22;54673;52.262;6.830;2023-12-28T00:44:57;7.00;99.90
67870;DHT22;54673;52.262;6.830;2023-12-28T00:47:23;6.90;99.90
67870;DHT22;54673;52.262;6.830;2023-12-28T00:49:48;7.10;99.90
67870;DHT22;54673;52.262;6.830;2023-12-28T00:52:14;7.10;99.90
67870;DHT22;54673;52.262;6.830;2023-12-28T00:54:40;7.50;99.90
67870;DHT22;54673;52.262;6.830;2023-12-28T00:57:05;6.90;99.90
67870;DHT22;54673;52.262;6.830;2023-12-28T00:59:31;6.90;99.90
67870;DHT22;54673;52.262;6.830;2023-12-28T01:01:57;8.80;99.90
67870;DHT22;54673;52.262;6.830;2023-12-28T01:04:22;7.10;99.90
67870;DHT22;54673;52.262;6.830;2023-12-28T01:06:52;7.10;99.90
67870;DHT22;54673;52.262;6.830;2023-12-28T01:09:17;7.20;99.90
67870;DHT22;54673;52.262;6.830;2023-12-28T01:11:46;7.20;99.90
67870;DHT22;54673;52.262;6.830;2023-12-28T01:14:12;7.20;99.90
67870;DHT22;54673;52.262;6.830;2023-12-28T01:16:37;7.20;99.90
67870;DHT22;54673;52.262;6.830;2023-12-28T01:19:05;7.70;99.90
67870;DHT22;54673;52.262;6.830;2023-12-28T01:21:31;7.20;99.90
67870;DHT22;54673;52.262;6.830;2023-12-28T01:23:56;8.30;99.90
67870;DHT22;54673;52.262;6.830;2023-12-28T01:26:22;7.20;99.90
67870;DHT22;54673;52.262;6.830;2023-12-28T01:28:47;7.20;99.90
67870;DHT22;54673;52.262;6.830;2023-12-28T01:31:13;7.90;99.90
67870;DHT22;54673;52.262;6.830;2023-12-28T01:33:38;7.20;99.90
67870;DHT22;54673;52.262;6.830;2023-12-28T01:36:24;8.60;99.90
67870;DHT22;54673;52.262;6.830;2023-12-28T01:38:51;8.30;99.90
67870;DHT22;54673;52.262;6.830;2023-12-28T01:41:17;8.80;99.90
67870;DHT22;54673;52.262;6.830;2023-12-28T01:43:42;7.30;99.90
67870;DHT22;54673;52.262;6.830;2023-12-28T01:46:14;7.80;99.90
67870;DHT22;54673;52.262;6.830;2023-12-28T01:48:42;7.50;99.90
67870;DHT22;54673;52.262;6.830;2023-12-28T01:51:07;7.30;99.90
67870;DHT22;54673;52.262;6.830;2023-12-28T01:53:33;7.30;99.90
67870;DHT22;54673;52.262;6.830;2023-12-28T01:55:59;7.30;99.90
67870;DHT22;54673;52.262;6.830;2023-12-28T01:58:27;7.30;99.90
67870;DHT22;54673;52.262;6.830;2023-12-28T02:00:56;7.30;99.90
67870;DHT22;54673;52.262;6.830;2023-12-28T02:03:21;7.30;99.90
67870;DHT22;54673;52.262;6.830;2023-12-28T02:05:47;8.20;99.90
67870;DHT22;54673;52.262;6.830;2023-12-28T02:08:13;7.20;99.90
67870;DHT22;54673;52.262;6.830;2023-12-28T02:10:39;7.20;99.90
67870;DHT22;54673;52.262;6.830;2023-12-28T02:13:04;7.40;99.90
67870;DHT22;54673;52.262;6.830;2023-12-28T02:15:30;7.40;99.90
67870;DHT22;54673;52.262;6.830;2023-12-28T02:18:05;7.40;99.90
67870;DHT22;54673;52.262;6.830;2023-12-28T02:20:35;7.40;99.90
67870;DHT22;54673;52.262;6.830;2023-12-28T02:23:01;8.90;99.90
67870;DHT22;54673;52.262;6.830;2023-12-28T02:25:27;7.50;99.90
67870;DHT22;54673;52.262;6.830;2023-12-28T02:27:53;7.50;99.90
67870;DHT22;54673;52.262;6.830;2023-12-28T02:30:21;7.40;99.90
67870;DHT22;54673;52.262;6.830;2023-12-28T02:35:36;8.60;99.90
67870;DHT22;54673;52.262;6.830;2023-12-28T02:38:06;7.50;99.90
67870;DHT22;54673;52.262;6.830;2023-12-28T02:40:37;7.50;99.90
67870;DHT22;54673;52.262;6.830;2023-12-28T02:43:06;7.50;99.90
67870;DHT22;54673;52.262;6.830;2023-12-28T02:45:32;7.50;99.90
67870;DHT22;54673;52.262;6.830;2023-12-28T02:47:58;7.50;99.90
67870;DHT22;54673;52.262;6.830;2023-12-28T02:50:23;7.50;99.90
67870;DHT22;54673;52.262;6.830;2023-12-28T02:52:49;7.50;99.90
67870;DHT22;54673;52.262;6.830;2023-12-28T02:55:14;7.50;99.90
67870;DHT22;54673;52.262;6.830;2023-12-28T02:57:40;7.60;99.90
67870;DHT22;54673;52.262;6.830;2023-12-28T03:00:06;8.80;99.90
67870;DHT22;54673;52.262;6.830;2023-12-28T03:02:35;7.60;99.90
67870;DHT22;54673;52.262;6.830;2023-12-28T03:05:01;7.60;99.90
67870;DHT22;54673;52.262;6.830;2023-12-28T03:07:26;7.40;99.90
67870;DHT22;54673;52.262;6.830;2023-12-28T03:09:52;7.50;99.90
67870;DHT22;54673;52.262;6.830;2023-12-28T03:12:18;7.60;99.90
67870;DHT22;54673;52.262;6.830;2023-12-28T03:14:43;7.60;99.90
67870;DHT22;54673;52.262;6.830;2023-12-28T03:17:09;7.60;99.90
67870;DHT22;54673;52.262;6.830;2023-12-28T03:19:36;7.60;99.90
67870;DHT22;54673;52.262;6.830;2023-12-28T03:22:01;7.50;99.90
67870;DHT22;54673;52.262;6.830;2023-12-28T03:24:27;7.60;99.90
67870;DHT22;54673;52.262;6.830;2023-12-28T03:26:53;7.40;99.90
67870;DHT22;54673;52.262;6.830;2023-12-28T03:29:20;7.40;99.90
67870;DHT22;54673;52.262;6.830;2023-12-28T03:31:45;7.60;99.90
67870;DHT22;54673;52.262;6.830;2023-12-28T03:34:11;7.60;99.90
67870;DHT22;54673;52.262;6.830;2023-12-28T03:36:37;7.60;99.90
67870;DHT22;54673;52.262;6.830;2023-12-28T03:39:02;7.70;99.90
67870;DHT22;54673;52.262;6.830;2023-12-28T03:41:29;7.70;99.90
67870;DHT22;54673;52.262;6.830;2023-12-28T03:43:55;7.70;99.90
67870;DHT22;54673;52.262;6.830;2023-12-28T03:46:20;7.70;99.90
67870;DHT22;54673;52.262;6.830;2023-12-28T03:48:46;8.40;99.90
67870;DHT22;54673;52.262;6.830;2023-12-28T03:51:16;8.00;99.90
67870;DHT22;54673;52.262;6.830;2023-12-28T03:53:42;7.70;99.90
67870;DHT22;54673;52.262;6.830;2023-12-28T03:56:08;7.70;99.90
67870;DHT22;54673;52.262;6.830;2023-12-28T03:58:33;7.70;99.90
67870;DHT22;54673;52.262;6.830;2023-12-28T04:00:59;7.70;99.90
67870;DHT22;54673;52.262;6.830;2023-12-28T04:03:24;7.60;99.90
67870;DHT22;54673;52.262;6.830;2023-12-28T04:05:51;7.40;99.90
67870;DHT22;54673;52.262;6.830;2023-12-28T04:08:16;8.60;99.90
67870;DHT22;54673;52.262;6.830;2023-12-28T04:10:42;7.50;99.90
67870;DHT22;54673;52.262;6.830;2023-12-28T04:13:08;7.70;99.90
67870;DHT22;54673;52.262;6.830;2023-12-28T04:15:33;7.60;99.90
67870;DHT22;54673;52.262;6.830;2023-12-28T04:17:59;7.60;99.90
67870;DHT22;54673;52.262;6.830;2023-12-28T04:20:24;7.60;99.90
67870;DHT22;54673;52.262;6.830;2023-12-28T04:22:50;7.60;99.90
67870;DHT22;54673;52.262;6.830;2023-12-28T04:25:16;9.00;99.90
67870;DHT22;54673;52.262;6.830;2023-12-28T04:27:42;7.70;99.90
67870;DHT22;54673;52.262;6.830;2023-12-28T04:30:11;7.70;99.90
67870;DHT22;54673;52.262;6.830;2023-12-28T04:32:36;7.70;99.90
67870;DHT22;54673;52.262;6.830;2023-12-28T04:35:02;7.70;99.90
67870;DHT22;54673;52.262;6.830;2023-12-28T04:37:29;7.70;99.90
67870;DHT22;54673;52.262;6.830;2023-12-28T04:39:56;7.70;99.90
67870;DHT22;54673;52.262;6.830;2023-12-28T04:42:22;7.50;99.90
67870;DHT22;54673;52.262;6.830;2023-12-28T04:44:47;7.70;99.90
67870;DHT22;54673;52.262;6.830;2023-12-28T04:47:13;7.70;99.90
67870;DHT22;54673;52.262;6.830;2023-12-28T04:49:39;7.70;99.90
67870;DHT22;54673;52.262;6.830;2023-12-28T04:52:04;7.70;99.90
67870;DHT22;54673;52.262;6.830;2023-12-28T04:54:30;7.70;99.90
67870;DHT22;54673;52.262;6.830;2023-12-28T04:56:55;9.20;99.90
67870;DHT22;54673;52.262;6.830;2023-12-28T04:59:21;7.80;99.90
67870;DHT22;54673;52.262;6.830;2023-12-28T05:01:47;9.10;99.90
67870;DHT22;54673;52.262;6.830;2023-12-28T05:04:12;7.80;99.90
67870;DHT22;54673;52.262;6.830;2023-12-28T05:06:38;7.80;99.90
67870;DHT22;54673;52.262;6.830;2023-12-28T05:09:04;7.80;99.90
67870;DHT22;54673;52.262;6.830;2023-12-28T05:11:30;7.70;99.90
67870;DHT22;54673;52.262;6.830;2023-12-28T05:13:55;7.80;99.90
67870;DHT22;54673;52.262;6.830;2023-12-28T05:16:22;7.80;99.90
67870;DHT22;54673;52.262;6.830;2023-12-28T05:18:47;7.80;99.90
67870;DHT22;54673;52.262;6.830;2023-12-28T05:21:13;7.80;99.90
67870;DHT22;54673;52.262;6.830;2023-12-28T05:23:39;7.80;99.90
67870;DHT22;54673;52.262;6.830;2023-12-28T05:26:05;8.90;99.90
67870;DHT22;54673;52.262;6.830;2023-12-28T05:28:31;7.80;99.90
67870;DHT22;54673;52.262;6.830;2023-12-28T05:30:57;7.90;99.90
67870;DHT22;54673;52.262;6.830;2023-12-28T05:33:25;7.80;99.90
67870;DHT22;54673;52.262;6.830;2023-12-28T05:35:50;7.80;99.90
67870;DHT22;54673;52.262;6.830;2023-12-28T05:38:16;7.90;99.90
67870;DHT22;54673;52.262;6.830;2023-12-28T05:40:41;7.90;99.90
67870;DHT22;54673;52.262;6.830;2023-12-28T05:43:08;7.90;99.90
67870;DHT22;54673;52.262;6.830;2023-12-28T05:45:33;9.20;99.90
67870;DHT22;54673;52.262;6.830;2023-12-28T05:47:59;7.70;99.90
67870;DHT22;54673;52.262;6.830;2023-12-28T05:50:25;8.30;99.90
67870;DHT22;54673;52.262;6.830;2023-12-28T05:52:50;8.60;99.90
67870;DHT22;54673;52.262;6.830;2023-12-28T05:55:16;8.70;99.90
67870;DHT22;54673;52.262;6.830;2023-12-28T05:57:41;7.70;99.90
67870;DHT22;54673;52.262;6.830;2023-12-28T06:00:07;8.70;99.90
67870;DHT22;54673;52.262;6.830;2023-12-28T06:02:35;7.90;99.90
67870;DHT22;54673;52.262;6.830;2023-12-28T06:05:01;7.90;99.90
67870;DHT22;54673;52.262;6.830;2023-12-28T06:07:26;7.90;99.90
67870;DHT22;54673;52.262;6.830;2023-12-28T06:09:52;9.50;99.90
67870;DHT22;54673;52.262;6.830;2023-12-28T06:12:17;8.00;99.90
67870;DHT22;54673;52.262;6.830;2023-12-28T06:14:43;8.40;99.90
67870;DHT22;54673;52.262;6.830;2023-12-28T06:17:09;8.00;99.90
67870;DHT22;54673;52.262;6.830;2023-12-28T06:19:34;8.60;99.90
67870;DHT22;54673;52.262;6.830;2023-12-28T06:22:00;8.60;99.90
67870;DHT22;54673;52.262;6.830;2023-12-28T06:24:26;8.90;99.90
67870;DHT22;54673;52.262;6.830;2023-12-28T06:26:52;9.10;99.90
67870;DHT22;54673;52.262;6.830;2023-12-28T06:29:17;8.90;99.90
67870;DHT22;54673;52.262;6.830;2023-12-28T06:31:43;8.00;99.90
67870;DHT22;54673;52.262;6.830;2023-12-28T06:34:09;9.10;99.90
67870;DHT22;54673;52.262;6.830;2023-12-28T06:36:34;9.00;99.90
67870;DHT22;54673;52.262;6.830;2023-12-28T06:39:00;9.10;99.90
67870;DHT22;54673;52.262;6.830;2023-12-28T06:41:26;8.40;99.90
67870;DHT22;54673;52.262;6.830;2023-12-28T06:43:52;8.50;99.90
67870;DHT22;54673;52.262;6.830;2023-12-28T06:46:18;7.50;99.90
67870;DHT22;54673;52.262;6.830;2023-12-28T06:48:45;8.00;99.90
67870;DHT22;54673;52.262;6.830;2023-12-28T06:51:16;8.00;99.90
67870;DHT22;54673;52.262;6.830;2023-12-28T06:53:43;9.30;99.90
67870;DHT22;54673;52.262;6.830;2023-12-28T06:56:09;8.40;99.90
67870;DHT22;54673;52.262;6.830;2023-12-28T06:58:35;9.00;99.90
67870;DHT22;54673;52.262;6.830;2023-12-28T07:01:06;9.30;99.90
67870;DHT22;54673;52.262;6.830;2023-12-28T07:03:32;8.10;99.90
67870;DHT22;54673;52.262;6.830;2023-12-28T07:06:01;8.90;99.90
67870;DHT22;54673;52.262;6.830;2023-12-28T07:08:28;9.20;99.90
67870;DHT22;54673;52.262;6.830;2023-12-28T07:10:53;8.10;99.90
67870;DHT22;54673;52.262;6.830;2023-12-28T07:13:19;8.50;99.90
67870;DHT22;54673;52.262;6.830;2023-12-28T07:15:44;9.20;99.90
67870;DHT22;54673;52.262;6.830;2023-12-28T07:18:10;9.30;99.90
67870;DHT22;54673;52.262;6.830;2023-12-28T07:20:36;8.10;99.90
67870;DHT22;54673;52.262;6.830;2023-12-28T07:23:02;7.30;99.90
67870;DHT22;54673;52.262;6.830;2023-12-28T07:25:28;8.10;99.90
67870;DHT22;54673;52.262;6.830;2023-12-28T07:27:54;8.20;99.90
67870;DHT22;54673;52.262;6.830;2023-12-28T07:30:19;8.20;99.90
67870;DHT22;54673;52.262;6.830;2023-12-28T07:32:45;9.50;99.90
67870;DHT22;54673;52.262;6.830;2023-12-28T07:35:11;8.70;99.90
67870;DHT22;54673;52.262;6.830;2023-12-28T07:37:37;9.00;99.90
67870;DHT22;54673;52.262;6.830;2023-12-28T07:40:03;8.10;99.90
67870;DHT22;54673;52.262;6.830;2023-12-28T07:42:29;8.20;99.90
67870;DHT22;54673;52.262;6.830;2023-12-28T07:44:55;8.20;99.90
67870;DHT22;54673;52.262;6.830;2023-12-28T07:47:20;9.20;99.90
67870;DHT22;54673;52.262;6.830;2023-12-28T07:49:46;9.30;99.90
67870;DHT22;54673;52.262;6.830;2023-12-28T07:52:12;8.40;99.90
67870;DHT22;54673;52.262;6.830;2023-12-28T07:54:37;8.00;99.90
67870;DHT22;54673;52.262;6.830;2023-12-28T07:57:03;9.00;99.90
67870;DHT22;54673;52.262;6.830;2023-12-28T07:59:29;8.30;99.90
67870;DHT22;54673;52.262;6.830;2023-12-28T08:01:55;9.40;99.90
67870;DHT22;54673;52.262;6.830;2023-12-28T08:04:21;7.50;99.90
67870;DHT22;54673;52.262;6.830;2023-12-28T08:06:46;9.70;99.90
67870;DHT22;54673;52.262;6.830;2023-12-28T08:09:12;8.20;99.90
67870;DHT22;54673;52.262;6.830;2023-12-28T08:11:38;8.30;99.90
67870;DHT22;54673;52.262;6.830;2023-12-28T08:14:05;8.30;99.90
67870;DHT22;54673;52.262;6.830;2023-12-28T08:16:30;8.30;99.90
67870;DHT22;54673;52.262;6.830;2023-12-28T08:18:56;8.30;99.90
67870;DHT22;54673;52.262;6.830;2023-12-28T08:21:22;8.30;99.90
67870;DHT22;54673;52.262;6.830;2023-12-28T08:23:53;8.30;99.90
67870;DHT22;54673;52.262;6.830;2023-12-28T08:26:19;8.30;99.90
67870;DHT22;54673;52.262;6.830;2023-12-28T08:28:45;8.60;99.90
67870;DHT22;54673;52.262;6.830;2023-12-28T08:31:11;8.20;99.90
67870;DHT22;54673;52.262;6.830;2023-12-28T08:33:37;9.80;99.90
67870;DHT22;54673;52.262;6.830;2023-12-28T08:36:07;8.20;99.90
67870;DHT22;54673;52.262;6.830;2023-12-28T08:38:33;8.30;99.90
67870;DHT22;54673;52.262;6.830;2023-12-28T08:40:58;9.10;99.90
67870;DHT22;54673;52.262;6.830;2023-12-28T08:43:24;8.40;99.90
67870;DHT22;54673;52.262;6.830;2023-12-28T08:45:50;8.20;99.90
67870;DHT22;54673;52.262;6.830;2023-12-28T08:48:15;9.00;99.90
67870;DHT22;54673;52.262;6.830;2023-12-28T08:50:48;8.40;99.90
67870;DHT22;54673;52.262;6.830;2023-12-28T08:53:14;8.30;99.90
67870;DHT22;54673;52.262;6.830;2023-12-28T08:55:39;8.60;99.90
67870;DHT22;54673;52.262;6.830;2023-12-28T08:58:05;9.60;99.90
67870;DHT22;54673;52.262;6.830;2023-12-28T09:00:37;8.40;99.90
67870;DHT22;54673;52.262;6.830;2023-12-28T09:03:19;8.00;99.90
67870;DHT22;54673;52.262;6.830;2023-12-28T09:05:44;8.30;99.90
67870;DHT22;54673;52.262;6.830;2023-12-28T09:08:10;9.70;99.90
67870;DHT22;54673;52.262;6.830;2023-12-28T09:10:36;8.50;99.90
67870;DHT22;54673;52.262;6.830;2023-12-28T09:13:04;8.40;99.90
67870;DHT22;54673;52.262;6.830;2023-12-28T09:15:31;9.40;99.90
67870;DHT22;54673;52.262;6.830;2023-12-28T09:17:56;9.70;99.90
67870;DHT22;54673;52.262;6.830;2023-12-28T09:20:22;9.70;99.90
67870;DHT22;54673;52.262;6.830;2023-12-28T09:22:47;9.80;99.90
67870;DHT22;54673;52.262;6.830;2023-12-28T09:25:18;9.10;99.90
67870;DHT22;54673;52.262;6.830;2023-12-28T09:27:44;9.10;99.90
67870;DHT22;54673;52.262;6.830;2023-12-28T09:30:10;9.50;99.90
67870;DHT22;54673;52.262;6.830;2023-12-28T09:32:35;8.50;99.90
67870;DHT22;54673;52.262;6.830;2023-12-28T09:35:01;8.80;99.90
67870;DHT22;54673;52.262;6.830;2023-12-28T09:37:26;8.60;99.90
67870;DHT22;54673;52.262;6.830;2023-12-28T09:39:52;7.50;99.90
67870;DHT22;54673;52.262;6.830;2023-12-28T09:42:26;8.50;99.90
67870;DHT22;54673;52.262;6.830;2023-12-28T09:44:54;8.70;99.90
67870;DHT22;54673;52.262;6.830;2023-12-28T09:47:20;9.80;99.90
67870;DHT22;54673;52.262;6.830;2023-12-28T09:49:46;8.90;99.90
67870;DHT22;54673;52.262;6.830;2023-12-28T09:52:12;9.40;99.90
67870;DHT22;54673;52.262;6.830;2023-12-28T09:54:38;10.30;99.90
67870;DHT22;54673;52.262;6.830;2023-12-28T09:57:04;8.60;99.90
67870;DHT22;54673;52.262;6.830;2023-12-28T09:59:31;8.70;99.90
67870;DHT22;54673;52.262;6.830;2023-12-28T10:01:58;8.60;99.90
67870;DHT22;54673;52.262;6.830;2023-12-28T10:04:26;9.90;99.90
67870;DHT22;54673;52.262;6.830;2023-12-28T10:06:54;9.90;99.90
67870;DHT22;54673;52.262;6.830;2023-12-28T10:09:20;9.60;99.90
67870;DHT22;54673;52.262;6.830;2023-12-28T10:11:47;10.00;99.90
67870;DHT22;54673;52.262;6.830;2023-12-28T10:14:13;8.60;99.90
67870;DHT22;54673;52.262;6.830;2023-12-28T10:16:42;9.90;99.90
67870;DHT22;54673;52.262;6.830;2023-12-28T10:19:08;9.50;99.90
67870;DHT22;54673;52.262;6.830;2023-12-28T10:21:33;8.90;99.90
67870;DHT22;54673;52.262;6.830;2023-12-28T10:23:59;9.30;99.90
67870;DHT22;54673;52.262;6.830;2023-12-28T10:26:25;9.50;99.90
67870;DHT22;54673;52.262;6.830;2023-12-28T10:28:58;8.80;99.90
67870;DHT22;54673;52.262;6.830;2023-12-28T10:31:24;8.80;99.90
67870;DHT22;54673;52.262;6.830;2023-12-28T10:33:49;9.50;99.90
67870;DHT22;54673;52.262;6.830;2023-12-28T10:36:15;9.20;99.90
67870;DHT22;54673;52.262;6.830;2023-12-28T10:38:43;8.90;99.90
67870;DHT22;54673;52.262;6.830;2023-12-28T10:41:10;8.90;99.90
67870;DHT22;54673;52.262;6.830;2023-12-28T10:43:46;9.00;99.90
67870;DHT22;54673;52.262;6.830;2023-12-28T10:46:22;9.00;99.90
67870;DHT22;54673;52.262;6.830;2023-12-28T10:48:54;9.10;99.90
67870;DHT22;54673;52.262;6.830;2023-12-28T10:51:25;8.90;99.90
67870;DHT22;54673;52.262;6.830;2023-12-28T10:59:47;9.00;99.90
67870;DHT22;54673;52.262;6.830;2023-12-28T11:02:18;9.00;99.90
67870;DHT22;54673;52.262;6.830;2023-12-28T11:04:50;9.50;99.90
67870;DHT22;54673;52.262;6.830;2023-12-28T11:07:18;9.10;99.90
67870;DHT22;54673;52.262;6.830;2023-12-28T11:09:45;9.10;99.90
67870;DHT22;54673;52.262;6.830;2023-12-28T11:12:11;10.40;99.90
67870;DHT22;54673;52.262;6.830;2023-12-28T11:14:41;9.60;99.90
67870;DHT22;54673;52.262;6.830;2023-12-28T11:17:06;10.50;99.90
67870;DHT22;54673;52.262;6.830;2023-12-28T11:19:33;10.40;99.90
67870;DHT22;54673;52.262;6.830;2023-12-28T11:22:02;10.10;99.90
67870;DHT22;54673;52.262;6.830;2023-12-28T11:24:29;9.20;99.90
67870;DHT22;54673;52.262;6.830;2023-12-28T11:27:03;9.00;99.90
67870;DHT22;54673;52.262;6.830;2023-12-28T11:29:32;9.40;99.90
67870;DHT22;54673;52.262;6.830;2023-12-28T11:31:58;10.70;99.90
67870;DHT22;54673;52.262;6.830;2023-12-28T11:34:29;10.40;99.90
67870;DHT22;54673;52.262;6.830;2023-12-28T11:37:02;10.30;99.90
67870;DHT22;54673;52.262;6.830;2023-12-28T11:39:36;9.50;99.90
67870;DHT22;54673;52.262;6.830;2023-12-28T11:42:09;9.30;99.90
67870;DHT22;54673;52.262;6.830;2023-12-28T11:44:43;10.20;99.90
67870;DHT22;54673;52.262;6.830;2023-12-28T11:47:14;10.00;99.90
67870;DHT22;54673;52.262;6.830;2023-12-28T11:49:40;9.30;99.90
67870;DHT22;54673;52.262;6.830;2023-12-28T11:52:07;9.30;99.90
67870;DHT22;54673;52.262;6.830;2023-12-28T11:54:33;10.40;99.90
67870;DHT22;54673;52.262;6.830;2023-12-28T11:56:58;10.60;99.90
67870;DHT22;54673;52.262;6.830;2023-12-28T11:59:24;10.00;99.90
67870;DHT22;54673;52.262;6.830;2023-12-28T12:01:50;9.90;99.90
67870;DHT22;54673;52.262;6.830;2023-12-28T12:04:20;9.60;99.90
67870;DHT22;54673;52.262;6.830;2023-12-28T12:06:46;9.50;99.90
67870;DHT22;54673;52.262;6.830;2023-12-28T12:09:15;9.50;99.90
67870;DHT22;54673;52.262;6.830;2023-12-28T12:11:41;10.00;99.90
67870;DHT22;54673;52.262;6.830;2023-12-28T12:14:11;10.90;99.90
67870;DHT22;54673;52.262;6.830;2023-12-28T12:16:37;9.50;99.90
67870;DHT22;54673;52.262;6.830;2023-12-28T12:19:05;9.50;99.90
67870;DHT22;54673;52.262;6.830;2023-12-28T12:21:34;10.90;99.90
67870;DHT22;54673;52.262;6.830;2023-12-28T12:24:00;9.50;99.90
67870;DHT22;54673;52.262;6.830;2023-12-28T12:26:27;11.00;99.90
67870;DHT22;54673;52.262;6.830;2023-12-28T12:28:55;10.20;99.90
67870;DHT22;54673;52.262;6.830;2023-12-28T12:31:21;8.80;99.90
67870;DHT22;54673;52.262;6.830;2023-12-28T12:33:46;10.20;99.90
67870;DHT22;54673;52.262;6.830;2023-12-28T12:36:12;9.80;99.90
67870;DHT22;54673;52.262;6.830;2023-12-28T12:38:38;10.70;99.90
67870;DHT22;54673;52.262;6.830;2023-12-28T12:41:06;9.50;99.90
67870;DHT22;54673;52.262;6.830;2023-12-28T12:43:33;9.80;99.90
67870;DHT22;54673;52.262;6.830;2023-12-28T12:45:58;9.60;99.90
67870;DHT22;54673;52.262;6.830;2023-12-28T12:48:25;10.00;99.90
67870;DHT22;54673;52.262;6.830;2023-12-28T12:50:51;9.50;99.90
67870;DHT22;54673;52.262;6.830;2023-12-28T12:53:17;9.60;99.90
67870;DHT22;54673;52.262;6.830;2023-12-28T12:55:42;10.40;99.90
67870;DHT22;54673;52.262;6.830;2023-12-28T12:58:13;9.60;99.90
67870;DHT22;54673;52.262;6.830;2023-12-28T13:00:41;9.60;99.90
67870;DHT22;54673;52.262;6.830;2023-12-28T13:03:08;9.60;99.90
67870;DHT22;54673;52.262;6.830;2023-12-28T13:05:37;11.00;99.90
67870;DHT22;54673;52.262;6.830;2023-12-28T13:08:04;9.80;99.90
67870;DHT22;54673;52.262;6.830;2023-12-28T13:10:30;9.70;99.90
67870;DHT22;54673;52.262;6.830;2023-12-28T13:12:56;10.70;99.90
67870;DHT22;54673;52.262;6.830;2023-12-28T13:15:30;9.70;99.90
67870;DHT22;54673;52.262;6.830;2023-12-28T13:17:56;10.40;99.90
67870;DHT22;54673;52.262;6.830;2023-12-28T13:20:21;10.60;99.90
67870;DHT22;54673;52.262;6.830;2023-12-28T13:22:47;10.50;99.90
67870;DHT22;54673;52.262;6.830;2023-12-28T13:25:12;10.70;99.90
67870;DHT22;54673;52.262;6.830;2023-12-28T13:27:38;10.50;99.90
67870;DHT22;54673;52.262;6.830;2023-12-28T13:30:05;9.50;99.90
67870;DHT22;54673;52.262;6.830;2023-12-28T13:32:30;9.60;99.90
67870;DHT22;54673;52.262;6.830;2023-12-28T13:34:56;9.60;99.90
67870;DHT22;54673;52.262;6.830;2023-12-28T13:37:22;9.60;99.90
67870;DHT22;54673;52.262;6.830;2023-12-28T13:39:47;10.20;99.90
67870;DHT22;54673;52.262;6.830;2023-12-28T13:42:13;9.50;99.90
67870;DHT22;54673;52.262;6.830;2023-12-28T13:44:38;10.20;99.90
67870;DHT22;54673;52.262;6.830;2023-12-28T13:47:04;9.60;99.90
67870;DHT22;54673;52.262;6.830;2023-12-28T13:49:31;9.70;99.90
67870;DHT22;54673;52.262;6.830;2023-12-28T13:51:57;9.70;99.90
67870;DHT22;54673;52.262;6.830;2023-12-28T13:54:23;9.70;99.90
67870;DHT22;54673;52.262;6.830;2023-12-28T13:56:49;8.90;99.90
67870;DHT22;54673;52.262;6.830;2023-12-28T13:59:15;10.80;99.90
67870;DHT22;54673;52.262;6.830;2023-12-28T14:01:41;10.50;99.90
67870;DHT22;54673;52.262;6.830;2023-12-28T14:04:08;9.20;99.90
67870;DHT22;54673;52.262;6.830;2023-12-28T14:06:34;8.80;99.90
67870;DHT22;54673;52.262;6.830;2023-12-28T14:09:00;9.60;99.90
67870;DHT22;54673;52.262;6.830;2023-12-28T14:11:28;9.70;99.90
67870;DHT22;54673;52.262;6.830;2023-12-28T14:13:57;11.10;99.90
67870;DHT22;54673;52.262;6.830;2023-12-28T14:16:23;9.70;99.90
67870;DHT22;54673;52.262;6.830;2023-12-28T14:18:49;9.60;99.90
67870;DHT22;54673;52.262;6.830;2023-12-28T14:21:15;8.20;99.90
67870;DHT22;54673;52.262;6.830;2023-12-28T14:23:41;9.70;99.90
67870;DHT22;54673;52.262;6.830;2023-12-28T14:26:14;9.60;99.90
67870;DHT22;54673;52.262;6.830;2023-12-28T14:28:41;9.70;99.90
67870;DHT22;54673;52.262;6.830;2023-12-28T14:31:10;9.70;99.90
67870;DHT22;54673;52.262;6.830;2023-12-28T14:33:37;10.50;99.90
67870;DHT22;54673;52.262;6.830;2023-12-28T14:36:19;9.60;99.90
67870;DHT22;54673;52.262;6.830;2023-12-28T14:38:48;9.70;99.90
67870;DHT22;54673;52.262;6.830;2023-12-28T14:41:14;9.60;99.90
67870;DHT22;54673;52.262;6.830;2023-12-28T14:43:39;9.70;99.90
67870;DHT22;54673;52.262;6.830;2023-12-28T14:46:05;9.90;99.90
67870;DHT22;54673;52.262;6.830;2023-12-28T14:48:31;9.60;99.90
67870;DHT22;54673;52.262;6.830;2023-12-28T14:50:57;9.60;99.90
67870;DHT22;54673;52.262;6.830;2023-12-28T14:53:22;10.80;99.90
67870;DHT22;54673;52.262;6.830;2023-12-28T14:55:51;10.50;99.90
67870;DHT22;54673;52.262;6.830;2023-12-28T14:58:16;11.20;99.90
67870;DHT22;54673;52.262;6.830;2023-12-28T15:00:44;9.80;99.90
67870;DHT22;54673;52.262;6.830;2023-12-28T15:03:11;9.70;99.90
67870;DHT22;54673;52.262;6.830;2023-12-28T15:05:36;9.60;99.90
67870;DHT22;54673;52.262;6.830;2023-12-28T15:08:02;10.20;99.90
67870;DHT22;54673;52.262;6.830;2023-12-28T15:10:28;9.60;99.90
67870;DHT22;54673;52.262;6.830;2023-12-28T15:12:53;9.60;99.90
67870;DHT22;54673;52.262;6.830;2023-12-28T15:15:19;9.60;99.90
67870;DHT22;54673;52.262;6.830;2023-12-28T15:17:45;9.60;99.90
67870;DHT22;54673;52.262;6.830;2023-12-28T15:20:11;9.60;99.90
67870;DHT22;54673;52.262;6.830;2023-12-28T15:22:38;9.60;99.90
67870;DHT22;54673;52.262;6.830;2023-12-28T15:25:04;9.60;99.90
67870;DHT22;54673;52.262;6.830;2023-12-28T15:27:32;9.60;99.90
67870;DHT22;54673;52.262;6.830;2023-12-28T15:29:57;9.50;99.90
67870;DHT22;54673;52.262;6.830;2023-12-28T15:32:23;9.50;99.90
67870;DHT22;54673;52.262;6.830;2023-12-28T15:34:48;10.10;99.90
67870;DHT22;54673;52.262;6.830;2023-12-28T15:37:14;10.80;99.90
67870;DHT22;54673;52.262;6.830;2023-12-28T15:39:52;10.90;99.90
67870;DHT22;54673;52.262;6.830;2023-12-28T15:42:17;10.10;99.90
67870;DHT22;54673;52.262;6.830;2023-12-28T15:44:43;10.10;99.90
67870;DHT22;54673;52.262;6.830;2023-12-28T15:47:23;10.50;99.90
67870;DHT22;54673;52.262;6.830;2023-12-28T15:49:49;10.20;99.90